sensor_id;sensor_type;location;lat;lon;timestamp;P1;durP1;ratioP1;P2;durP2;ratioP2
10699;SDS011;5401;41.986;21.452;2022-08-01T00:01:15;4.60;;;3.40;;
10699;SDS011;5401;41.986;21.452;2022-08-01T00:03:42;3.73;;;2.63;;
10699;SDS011;5401;41.986;21.452;2022-08-01T00:06:10;3.57;;;3.07;;
10699;SDS011;5401;41.986;21.452;2022-08-01T00:08:37;2.87;;;2.63;;
10699;SDS011;5401;41.986;21.452;2022-08-01T00:11:06;4.10;;;2.80;;
10699;SDS011;5401;41.986;21.452;2022-08-01T00:13:34;3.43;;;2.97;;
10699;SDS011;5401;41.986;21.452;2022-08-01T00:16:02;3.30;;;3.10;;
10699;SDS011;5401;41.986;21.452;2022-08-01T00:18:30;3.00;;;2.70;;
10699;SDS011;5401;41.986;21.452;2022-08-01T00:20:58;3.43;;;2.90;;
10699;SDS011;5401;41.986;21.452;2022-08-01T00:23:25;3.97;;;2.90;;
10699;SDS011;5401;41.986;21.452;2022-08-01T00:25:53;3.03;;;2.80;;
10699;SDS011;5401;41.986;21.452;2022-08-01T00:28:22;3.13;;;2.83;;
10699;SDS011;5401;41.986;21.452;2022-08-01T00:30:49;3.30;;;2.70;;
10699;SDS011;5401;41.986;21.452;2022-08-01T00:33:17;3.90;;;2.70;;
10699;SDS011;5401;41.986;21.452;2022-08-01T00:35:45;3.07;;;2.77;;
10699;SDS011;5401;41.986;21.452;2022-08-01T00:38:12;3.60;;;3.10;;
10699;SDS011;5401;41.986;21.452;2022-08-01T00:40:40;3.77;;;3.10;;
10699;SDS011;5401;41.986;21.452;2022-08-01T00:43:08;4.40;;;4.10;;
10699;SDS011;5401;41.986;21.452;2022-08-01T00:45:37;3.37;;;3.07;;
10699;SDS011;5401;41.986;21.452;2022-08-01T00:48:05;2.93;;;2.67;;
10699;SDS011;5401;41.986;21.452;2022-08-01T00:50:33;26.97;;;25.57;;
10699;SDS011;5401;41.986;21.452;2022-08-01T00:53:01;36.10;;;34.23;;
10699;SDS011;5401;41.986;21.452;2022-08-01T00:55:29;38.50;;;36.60;;
10699;SDS011;5401;41.986;21.452;2022-08-01T00:57:58;31.83;;;30.23;;
10699;SDS011;5401;41.986;21.452;2022-08-01T01:00:26;33.57;;;31.73;;
10699;SDS011;5401;41.986;21.452;2022-08-01T01:02:55;33.00;;;31.30;;
10699;SDS011;5401;41.986;21.452;2022-08-01T01:05:23;35.33;;;33.43;;
10699;SDS011;5401;41.986;21.452;2022-08-01T01:07:53;2.90;;;2.70;;
10699;SDS011;5401;41.986;21.452;2022-08-01T01:10:28;5.47;;;3.07;;
10699;SDS011;5401;41.986;21.452;2022-08-01T01:13:04;4.67;;;3.10;;
10699;SDS011;5401;41.986;21.452;2022-08-01T01:15:41;5.23;;;3.13;;
10699;SDS011;5401;41.986;21.452;2022-08-01T01:18:14;8.33;;;3.23;;
10699;SDS011;5401;41.986;21.452;2022-08-01T01:20:49;5.67;;;3.00;;
10699;SDS011;5401;41.986;21.452;2022-08-01T01:23:27;3.73;;;3.13;;
10699;SDS011;5401;41.986;21.452;2022-08-01T01:26:11;4.87;;;2.80;;
10699;SDS011;5401;41.986;21.452;2022-08-01T01:29:07;2.90;;;2.70;;
10699;SDS011;5401;41.986;21.452;2022-08-01T01:31:42;4.17;;;3.23;;
10699;SDS011;5401;41.986;21.452;2022-08-01T01:34:13;3.53;;;3.00;;
10699;SDS011;5401;41.986;21.452;2022-08-01T01:36:44;3.70;;;3.10;;
10699;SDS011;5401;41.986;21.452;2022-08-01T01:39:15;5.43;;;3.33;;
10699;SDS011;5401;41.986;21.452;2022-08-01T01:41:44;4.50;;;3.27;;
10699;SDS011;5401;41.986;21.452;2022-08-01T01:44:15;4.00;;;3.60;;
10699;SDS011;5401;41.986;21.452;2022-08-01T01:46:45;3.53;;;3.13;;
10699;SDS011;5401;41.986;21.452;2022-08-01T01:49:14;2.93;;;2.73;;
10699;SDS011;5401;41.986;21.452;2022-08-01T01:51:46;3.70;;;2.90;;
10699;SDS011;5401;41.986;21.452;2022-08-01T01:54:15;8.00;;;3.43;;
10699;SDS011;5401;41.986;21.452;2022-08-01T01:56:44;3.33;;;3.03;;
10699;SDS011;5401;41.986;21.452;2022-08-01T01:59:20;4.57;;;3.53;;
10699;SDS011;5401;41.986;21.452;2022-08-01T02:01:51;5.57;;;3.97;;
10699;SDS011;5401;41.986;21.452;2022-08-01T02:04:22;5.00;;;3.63;;
10699;SDS011;5401;41.986;21.452;2022-08-01T02:06:51;4.57;;;3.93;;
10699;SDS011;5401;41.986;21.452;2022-08-01T02:09:20;10.40;;;3.90;;
10699;SDS011;5401;41.986;21.452;2022-08-01T02:11:50;7.67;;;4.30;;
10699;SDS011;5401;41.986;21.452;2022-08-01T02:14:20;6.20;;;4.10;;
10699;SDS011;5401;41.986;21.452;2022-08-01T02:16:50;9.80;;;4.30;;
10699;SDS011;5401;41.986;21.452;2022-08-01T02:19:17;5.67;;;3.90;;
10699;SDS011;5401;41.986;21.452;2022-08-01T02:21:47;9.93;;;4.00;;
10699;SDS011;5401;41.986;21.452;2022-08-01T02:24:20;5.57;;;4.37;;
10699;SDS011;5401;41.986;21.452;2022-08-01T02:26:53;7.77;;;4.50;;
10699;SDS011;5401;41.986;21.452;2022-08-01T02:29:27;5.80;;;4.30;;
10699;SDS011;5401;41.986;21.452;2022-08-01T02:32:10;8.50;;;4.67;;
10699;SDS011;5401;41.986;21.452;2022-08-01T02:34:46;5.17;;;4.67;;
10699;SDS011;5401;41.986;21.452;2022-08-01T02:37:16;11.37;;;5.27;;
10699;SDS011;5401;41.986;21.452;2022-08-01T02:39:49;7.40;;;5.10;;
10699;SDS011;5401;41.986;21.452;2022-08-01T02:42:19;4.77;;;4.17;;
10699;SDS011;5401;41.986;21.452;2022-08-01T02:44:51;6.03;;;5.43;;
10699;SDS011;5401;41.986;21.452;2022-08-01T02:47:20;5.47;;;4.97;;
10699;SDS011;5401;41.986;21.452;2022-08-01T02:49:51;5.80;;;5.30;;
10699;SDS011;5401;41.986;21.452;2022-08-01T02:52:21;5.37;;;4.93;;
10699;SDS011;5401;41.986;21.452;2022-08-01T02:54:53;37.47;;;35.37;;
10699;SDS011;5401;41.986;21.452;2022-08-01T02:57:23;5.57;;;4.20;;
10699;SDS011;5401;41.986;21.452;2022-08-01T02:59:53;34.10;;;32.03;;
10699;SDS011;5401;41.986;21.452;2022-08-01T03:02:24;5.40;;;4.70;;
10699;SDS011;5401;41.986;21.452;2022-08-01T03:04:53;6.03;;;4.30;;
10699;SDS011;5401;41.986;21.452;2022-08-01T03:07:23;5.97;;;4.30;;
10699;SDS011;5401;41.986;21.452;2022-08-01T03:09:52;7.00;;;3.67;;
10699;SDS011;5401;41.986;21.452;2022-08-01T03:12:21;4.10;;;3.80;;
10699;SDS011;5401;41.986;21.452;2022-08-01T03:14:54;5.43;;;4.27;;
10699;SDS011;5401;41.986;21.452;2022-08-01T03:17:24;4.60;;;4.20;;
10699;SDS011;5401;41.986;21.452;2022-08-01T03:19:54;5.80;;;4.33;;
10699;SDS011;5401;41.986;21.452;2022-08-01T03:22:23;6.30;;;3.80;;
10699;SDS011;5401;41.986;21.452;2022-08-01T03:24:53;7.27;;;4.40;;
10699;SDS011;5401;41.986;21.452;2022-08-01T03:27:23;11.07;;;4.47;;
10699;SDS011;5401;41.986;21.452;2022-08-01T03:29:54;5.77;;;4.33;;
10699;SDS011;5401;41.986;21.452;2022-08-01T03:32:23;6.83;;;4.83;;
10699;SDS011;5401;41.986;21.452;2022-08-01T03:34:52;11.23;;;5.43;;
10699;SDS011;5401;41.986;21.452;2022-08-01T03:37:21;12.40;;;4.70;;
10699;SDS011;5401;41.986;21.452;2022-08-01T03:39:54;10.40;;;5.23;;
10699;SDS011;5401;41.986;21.452;2022-08-01T03:42:27;12.87;;;5.27;;
10699;SDS011;5401;41.986;21.452;2022-08-01T03:45:02;9.80;;;5.50;;
10699;SDS011;5401;41.986;21.452;2022-08-01T03:47:35;13.60;;;5.67;;
10699;SDS011;5401;41.986;21.452;2022-08-01T03:50:03;7.93;;;4.80;;
10699;SDS011;5401;41.986;21.452;2022-08-01T03:52:33;17.93;;;5.93;;
10699;SDS011;5401;41.986;21.452;2022-08-01T03:55:05;34.17;;;31.60;;
10699;SDS011;5401;41.986;21.452;2022-08-01T03:57:34;39.37;;;36.20;;
10699;SDS011;5401;41.986;21.452;2022-08-01T04:00:05;36.93;;;34.67;;
10699;SDS011;5401;41.986;21.452;2022-08-01T04:02:34;10.07;;;4.80;;
10699;SDS011;5401;41.986;21.452;2022-08-01T04:05:04;7.47;;;4.43;;
10699;SDS011;5401;41.986;21.452;2022-08-01T04:07:33;22.77;;;17.50;;
10699;SDS011;5401;41.986;21.452;2022-08-01T04:10:01;44.17;;;40.87;;
10699;SDS011;5401;41.986;21.452;2022-08-01T04:12:29;13.93;;;5.33;;
10699;SDS011;5401;41.986;21.452;2022-08-01T04:14:58;10.83;;;4.43;;
10699;SDS011;5401;41.986;21.452;2022-08-01T04:17:27;8.87;;;4.40;;
10699;SDS011;5401;41.986;21.452;2022-08-01T04:19:54;16.37;;;4.40;;
10699;SDS011;5401;41.986;21.452;2022-08-01T04:22:22;8.70;;;4.47;;
10699;SDS011;5401;41.986;21.452;2022-08-01T04:24:51;16.50;;;13.57;;
10699;SDS011;5401;41.986;21.452;2022-08-01T04:27:23;12.33;;;5.83;;
10699;SDS011;5401;41.986;21.452;2022-08-01T04:29:56;8.00;;;3.93;;
10699;SDS011;5401;41.986;21.452;2022-08-01T04:32:25;7.30;;;3.27;;
10699;SDS011;5401;41.986;21.452;2022-08-01T04:34:57;6.57;;;3.20;;
10699;SDS011;5401;41.986;21.452;2022-08-01T04:37:26;7.43;;;3.67;;
10699;SDS011;5401;41.986;21.452;2022-08-01T04:39:55;5.77;;;3.63;;
10699;SDS011;5401;41.986;21.452;2022-08-01T04:42:25;3.63;;;3.20;;
10699;SDS011;5401;41.986;21.452;2022-08-01T04:44:53;5.30;;;3.90;;
10699;SDS011;5401;41.986;21.452;2022-08-01T04:47:21;6.37;;;3.17;;
10699;SDS011;5401;41.986;21.452;2022-08-01T04:49:51;12.00;;;4.03;;
10699;SDS011;5401;41.986;21.452;2022-08-01T04:52:19;7.07;;;4.37;;
10699;SDS011;5401;41.986;21.452;2022-08-01T04:54:47;4.40;;;3.00;;
10699;SDS011;5401;41.986;21.452;2022-08-01T04:57:14;5.27;;;3.00;;
10699;SDS011;5401;41.986;21.452;2022-08-01T04:59:42;11.00;;;3.80;;
10699;SDS011;5401;41.986;21.452;2022-08-01T05:02:12;2.97;;;2.67;;
10699;SDS011;5401;41.986;21.452;2022-08-01T05:04:41;9.60;;;2.90;;
10699;SDS011;5401;41.986;21.452;2022-08-01T05:07:12;8.47;;;3.97;;
10699;SDS011;5401;41.986;21.452;2022-08-01T05:09:41;7.67;;;2.80;;
10699;SDS011;5401;41.986;21.452;2022-08-01T05:12:11;5.50;;;2.60;;
10699;SDS011;5401;41.986;21.452;2022-08-01T05:14:39;7.70;;;4.13;;
10699;SDS011;5401;41.986;21.452;2022-08-01T05:17:07;8.00;;;2.40;;
10699;SDS011;5401;41.986;21.452;2022-08-01T05:19:36;3.43;;;2.60;;
10699;SDS011;5401;41.986;21.452;2022-08-01T05:22:06;6.47;;;3.07;;
10699;SDS011;5401;41.986;21.452;2022-08-01T05:24:37;3.43;;;2.67;;
10699;SDS011;5401;41.986;21.452;2022-08-01T05:27:06;6.37;;;2.90;;
10699;SDS011;5401;41.986;21.452;2022-08-01T05:29:34;8.33;;;2.90;;
10699;SDS011;5401;41.986;21.452;2022-08-01T05:32:02;7.97;;;2.83;;
10699;SDS011;5401;41.986;21.452;2022-08-01T05:34:30;5.60;;;2.43;;
10699;SDS011;5401;41.986;21.452;2022-08-01T05:36:58;4.00;;;2.80;;
10699;SDS011;5401;41.986;21.452;2022-08-01T05:39:26;7.80;;;4.20;;
10699;SDS011;5401;41.986;21.452;2022-08-01T05:41:55;10.20;;;5.80;;
10699;SDS011;5401;41.986;21.452;2022-08-01T05:44:22;16.93;;;5.47;;
10699;SDS011;5401;41.986;21.452;2022-08-01T05:46:50;14.20;;;4.60;;
10699;SDS011;5401;41.986;21.452;2022-08-01T05:49:18;13.70;;;5.90;;
10699;SDS011;5401;41.986;21.452;2022-08-01T05:51:45;9.73;;;5.63;;
10699;SDS011;5401;41.986;21.452;2022-08-01T05:54:13;10.73;;;5.53;;
10699;SDS011;5401;41.986;21.452;2022-08-01T05:56:41;10.03;;;5.00;;
10699;SDS011;5401;41.986;21.452;2022-08-01T05:59:10;17.10;;;5.90;;
10699;SDS011;5401;41.986;21.452;2022-08-01T06:01:38;23.40;;;8.67;;
10699;SDS011;5401;41.986;21.452;2022-08-01T06:04:05;17.67;;;6.93;;
10699;SDS011;5401;41.986;21.452;2022-08-01T06:06:33;15.63;;;7.20;;
10699;SDS011;5401;41.986;21.452;2022-08-01T06:09:01;17.17;;;8.57;;
10699;SDS011;5401;41.986;21.452;2022-08-01T06:11:28;15.30;;;8.33;;
10699;SDS011;5401;41.986;21.452;2022-08-01T06:13:56;12.63;;;6.70;;
10699;SDS011;5401;41.986;21.452;2022-08-01T06:16:25;11.63;;;6.37;;
10699;SDS011;5401;41.986;21.452;2022-08-01T06:18:52;11.27;;;6.07;;
10699;SDS011;5401;41.986;21.452;2022-08-01T06:21:20;8.60;;;5.47;;
10699;SDS011;5401;41.986;21.452;2022-08-01T06:23:48;12.80;;;6.63;;
10699;SDS011;5401;41.986;21.452;2022-08-01T06:26:17;11.17;;;5.90;;
10699;SDS011;5401;41.986;21.452;2022-08-01T06:28:44;12.60;;;5.90;;
10699;SDS011;5401;41.986;21.452;2022-08-01T06:31:12;16.60;;;6.20;;
10699;SDS011;5401;41.986;21.452;2022-08-01T06:33:42;9.70;;;4.97;;
10699;SDS011;5401;41.986;21.452;2022-08-01T06:36:10;12.23;;;5.27;;
10699;SDS011;5401;41.986;21.452;2022-08-01T06:38:37;8.83;;;5.47;;
10699;SDS011;5401;41.986;21.452;2022-08-01T06:41:05;13.40;;;4.80;;
10699;SDS011;5401;41.986;21.452;2022-08-01T06:43:32;12.23;;;4.50;;
10699;SDS011;5401;41.986;21.452;2022-08-01T06:46:00;7.80;;;3.63;;
10699;SDS011;5401;41.986;21.452;2022-08-01T06:48:28;5.67;;;3.63;;
10699;SDS011;5401;41.986;21.452;2022-08-01T06:50:57;6.10;;;3.60;;
10699;SDS011;5401;41.986;21.452;2022-08-01T06:53:34;8.33;;;3.73;;
10699;SDS011;5401;41.986;21.452;2022-08-01T06:56:03;15.63;;;4.10;;
10699;SDS011;5401;41.986;21.452;2022-08-01T06:58:31;11.13;;;3.93;;
10699;SDS011;5401;41.986;21.452;2022-08-01T07:01:00;9.93;;;3.43;;
10699;SDS011;5401;41.986;21.452;2022-08-01T07:03:28;3.07;;;2.07;;
10699;SDS011;5401;41.986;21.452;2022-08-01T07:05:57;2.40;;;1.97;;
10699;SDS011;5401;41.986;21.452;2022-08-01T07:08:24;7.33;;;2.20;;
10699;SDS011;5401;41.986;21.452;2022-08-01T07:10:52;4.30;;;1.93;;
10699;SDS011;5401;41.986;21.452;2022-08-01T07:13:20;4.40;;;2.03;;
10699;SDS011;5401;41.986;21.452;2022-08-01T07:15:50;4.37;;;2.00;;
10699;SDS011;5401;41.986;21.452;2022-08-01T07:18:19;3.70;;;2.20;;
10699;SDS011;5401;41.986;21.452;2022-08-01T07:20:46;4.47;;;2.53;;
10699;SDS011;5401;41.986;21.452;2022-08-01T07:23:15;3.80;;;2.07;;
10699;SDS011;5401;41.986;21.452;2022-08-01T07:25:43;6.23;;;2.33;;
10699;SDS011;5401;41.986;21.452;2022-08-01T07:28:11;7.37;;;2.10;;
10699;SDS011;5401;41.986;21.452;2022-08-01T07:30:41;4.50;;;2.20;;
10699;SDS011;5401;41.986;21.452;2022-08-01T07:33:10;3.10;;;2.07;;
10699;SDS011;5401;41.986;21.452;2022-08-01T07:35:38;4.63;;;2.00;;
10699;SDS011;5401;41.986;21.452;2022-08-01T07:38:05;8.93;;;2.03;;
10699;SDS011;5401;41.986;21.452;2022-08-01T07:40:35;3.10;;;2.00;;
10699;SDS011;5401;41.986;21.452;2022-08-01T07:43:03;2.30;;;2.00;;
10699;SDS011;5401;41.986;21.452;2022-08-01T07:45:30;3.07;;;1.80;;
10699;SDS011;5401;41.986;21.452;2022-08-01T07:48:01;2.87;;;1.90;;
10699;SDS011;5401;41.986;21.452;2022-08-01T07:50:30;2.23;;;1.73;;
10699;SDS011;5401;41.986;21.452;2022-08-01T07:52:57;6.20;;;2.23;;
10699;SDS011;5401;41.986;21.452;2022-08-01T07:55:25;4.23;;;1.80;;
10699;SDS011;5401;41.986;21.452;2022-08-01T07:57:54;3.83;;;2.00;;
10699;SDS011;5401;41.986;21.452;2022-08-01T08:00:22;7.17;;;2.57;;
10699;SDS011;5401;41.986;21.452;2022-08-01T08:02:50;5.70;;;1.83;;
10699;SDS011;5401;41.986;21.452;2022-08-01T08:05:17;8.73;;;2.10;;
10699;SDS011;5401;41.986;21.452;2022-08-01T08:10:37;2.77;;;1.70;;
10699;SDS011;5401;41.986;21.452;2022-08-01T08:13:06;4.70;;;1.87;;
10699;SDS011;5401;41.986;21.452;2022-08-01T08:15:35;2.10;;;1.90;;
10699;SDS011;5401;41.986;21.452;2022-08-01T08:18:03;5.20;;;1.80;;
10699;SDS011;5401;41.986;21.452;2022-08-01T08:20:30;7.87;;;2.20;;
10699;SDS011;5401;41.986;21.452;2022-08-01T08:22:58;2.40;;;2.00;;
10699;SDS011;5401;41.986;21.452;2022-08-01T08:25:26;4.53;;;2.20;;
10699;SDS011;5401;41.986;21.452;2022-08-01T08:27:54;5.57;;;2.07;;
10699;SDS011;5401;41.986;21.452;2022-08-01T08:30:23;5.67;;;1.90;;
10699;SDS011;5401;41.986;21.452;2022-08-01T08:32:52;2.53;;;2.10;;
10699;SDS011;5401;41.986;21.452;2022-08-01T08:35:20;12.00;;;2.87;;
10699;SDS011;5401;41.986;21.452;2022-08-01T08:37:48;10.60;;;2.20;;
10699;SDS011;5401;41.986;21.452;2022-08-01T08:40:15;2.40;;;1.80;;
10699;SDS011;5401;41.986;21.452;2022-08-01T08:42:43;5.33;;;1.90;;
10699;SDS011;5401;41.986;21.452;2022-08-01T08:45:13;1.80;;;1.70;;
10699;SDS011;5401;41.986;21.452;2022-08-01T08:47:42;5.80;;;2.27;;
10699;SDS011;5401;41.986;21.452;2022-08-01T08:50:14;8.90;;;2.33;;
10699;SDS011;5401;41.986;21.452;2022-08-01T08:52:42;3.80;;;2.17;;
10699;SDS011;5401;41.986;21.452;2022-08-01T08:55:11;7.70;;;2.17;;
10699;SDS011;5401;41.986;21.452;2022-08-01T08:57:41;3.30;;;1.87;;
10699;SDS011;5401;41.986;21.452;2022-08-01T09:00:12;4.63;;;1.77;;
10699;SDS011;5401;41.986;21.452;2022-08-01T09:02:43;5.03;;;2.20;;
10699;SDS011;5401;41.986;21.452;2022-08-01T09:05:12;11.73;;;2.40;;
10699;SDS011;5401;41.986;21.452;2022-08-01T09:07:40;7.67;;;2.13;;
10699;SDS011;5401;41.986;21.452;2022-08-01T09:10:08;8.83;;;2.50;;
10699;SDS011;5401;41.986;21.452;2022-08-01T09:12:36;4.10;;;1.87;;
10699;SDS011;5401;41.986;21.452;2022-08-01T09:15:04;5.80;;;1.83;;
10699;SDS011;5401;41.986;21.452;2022-08-01T09:17:39;11.70;;;2.60;;
10699;SDS011;5401;41.986;21.452;2022-08-01T09:20:09;22.17;;;2.57;;
10699;SDS011;5401;41.986;21.452;2022-08-01T09:22:50;5.93;;;2.37;;
10699;SDS011;5401;41.986;21.452;2022-08-01T09:25:18;5.77;;;2.50;;
10699;SDS011;5401;41.986;21.452;2022-08-01T09:27:46;5.97;;;1.83;;
10699;SDS011;5401;41.986;21.452;2022-08-01T09:30:14;2.87;;;2.03;;
10699;SDS011;5401;41.986;21.452;2022-08-01T09:35:30;5.93;;;1.80;;
10699;SDS011;5401;41.986;21.452;2022-08-01T09:38:13;6.53;;;2.23;;
10699;SDS011;5401;41.986;21.452;2022-08-01T09:40:48;3.43;;;1.83;;
10699;SDS011;5401;41.986;21.452;2022-08-01T09:43:19;7.17;;;2.30;;
10699;SDS011;5401;41.986;21.452;2022-08-01T09:45:48;3.83;;;2.00;;
10699;SDS011;5401;41.986;21.452;2022-08-01T09:48:16;3.17;;;2.17;;
10699;SDS011;5401;41.986;21.452;2022-08-01T09:50:46;9.20;;;2.57;;
10699;SDS011;5401;41.986;21.452;2022-08-01T09:53:15;4.70;;;2.10;;
10699;SDS011;5401;41.986;21.452;2022-08-01T09:55:43;4.27;;;2.30;;
10699;SDS011;5401;41.986;21.452;2022-08-01T09:58:11;6.97;;;2.33;;
10699;SDS011;5401;41.986;21.452;2022-08-01T10:00:39;6.63;;;2.43;;
10699;SDS011;5401;41.986;21.452;2022-08-01T10:03:19;4.57;;;2.35;;
10699;SDS011;5401;41.986;21.452;2022-08-01T10:05:49;7.37;;;2.87;;
10699;SDS011;5401;41.986;21.452;2022-08-01T10:08:19;7.40;;;2.27;;
10699;SDS011;5401;41.986;21.452;2022-08-01T10:13:34;3.63;;;2.33;;
10699;SDS011;5401;41.986;21.452;2022-08-01T10:16:02;7.10;;;1.90;;
10699;SDS011;5401;41.986;21.452;2022-08-01T10:18:32;5.23;;;2.33;;
10699;SDS011;5401;41.986;21.452;2022-08-01T10:21:02;4.90;;;2.37;;
10699;SDS011;5401;41.986;21.452;2022-08-01T10:23:33;4.87;;;1.97;;
10699;SDS011;5401;41.986;21.452;2022-08-01T10:26:01;11.47;;;2.27;;
10699;SDS011;5401;41.986;21.452;2022-08-01T10:28:31;4.23;;;2.07;;
10699;SDS011;5401;41.986;21.452;2022-08-01T10:31:02;4.63;;;2.07;;
10699;SDS011;5401;41.986;21.452;2022-08-01T10:33:30;3.83;;;2.00;;
10699;SDS011;5401;41.986;21.452;2022-08-01T10:35:57;4.80;;;2.30;;
10699;SDS011;5401;41.986;21.452;2022-08-01T10:38:26;3.60;;;2.20;;
10699;SDS011;5401;41.986;21.452;2022-08-01T10:40:54;5.87;;;2.57;;
10699;SDS011;5401;41.986;21.452;2022-08-01T10:43:24;6.10;;;2.80;;
10699;SDS011;5401;41.986;21.452;2022-08-01T10:45:51;5.40;;;2.53;;
10699;SDS011;5401;41.986;21.452;2022-08-01T10:48:20;6.03;;;1.90;;
10699;SDS011;5401;41.986;21.452;2022-08-01T10:50:54;5.20;;;2.30;;
10699;SDS011;5401;41.986;21.452;2022-08-01T10:53:25;5.00;;;2.70;;
10699;SDS011;5401;41.986;21.452;2022-08-01T10:55:57;3.70;;;2.20;;
10699;SDS011;5401;41.986;21.452;2022-08-01T10:58:26;3.03;;;2.33;;
10699;SDS011;5401;41.986;21.452;2022-08-01T11:01:14;5.00;;;2.40;;
10699;SDS011;5401;41.986;21.452;2022-08-01T11:03:43;9.33;;;2.47;;
10699;SDS011;5401;41.986;21.452;2022-08-01T11:06:15;8.90;;;3.03;;
10699;SDS011;5401;41.986;21.452;2022-08-01T11:08:51;6.63;;;2.30;;
10699;SDS011;5401;41.986;21.452;2022-08-01T11:11:20;3.00;;;2.07;;
10699;SDS011;5401;41.986;21.452;2022-08-01T11:14:00;2.53;;;2.10;;
10699;SDS011;5401;41.986;21.452;2022-08-01T11:16:33;8.90;;;2.47;;
10699;SDS011;5401;41.986;21.452;2022-08-01T11:19:02;4.40;;;2.00;;
10699;SDS011;5401;41.986;21.452;2022-08-01T11:27:25;2.90;;;2.50;;
10699;SDS011;5401;41.986;21.452;2022-08-01T11:32:52;8.87;;;2.20;;
10699;SDS011;5401;41.986;21.452;2022-08-01T11:35:21;6.67;;;2.13;;
10699;SDS011;5401;41.986;21.452;2022-08-01T11:37:52;5.00;;;2.20;;
10699;SDS011;5401;41.986;21.452;2022-08-01T11:40:24;5.87;;;2.33;;
10699;SDS011;5401;41.986;21.452;2022-08-01T11:45:48;4.30;;;2.40;;
10699;SDS011;5401;41.986;21.452;2022-08-01T11:48:21;10.53;;;2.03;;
10699;SDS011;5401;41.986;21.452;2022-08-01T11:50:49;8.13;;;2.50;;
10699;SDS011;5401;41.986;21.452;2022-08-01T11:53:18;4.43;;;2.57;;
10699;SDS011;5401;41.986;21.452;2022-08-01T11:55:48;8.33;;;2.40;;
10699;SDS011;5401;41.986;21.452;2022-08-01T11:58:21;11.77;;;2.93;;
10699;SDS011;5401;41.986;21.452;2022-08-01T12:00:51;5.87;;;2.30;;
10699;SDS011;5401;41.986;21.452;2022-08-01T12:03:25;5.97;;;2.63;;
10699;SDS011;5401;41.986;21.452;2022-08-01T12:05:53;15.53;;;3.23;;
10699;SDS011;5401;41.986;21.452;2022-08-01T12:08:24;8.10;;;2.27;;
10699;SDS011;5401;41.986;21.452;2022-08-01T12:10:54;12.20;;;2.40;;
10699;SDS011;5401;41.986;21.452;2022-08-01T12:13:22;4.80;;;2.20;;
10699;SDS011;5401;41.986;21.452;2022-08-01T12:15:50;6.50;;;2.47;;
10699;SDS011;5401;41.986;21.452;2022-08-01T12:18:17;6.13;;;2.27;;
10699;SDS011;5401;41.986;21.452;2022-08-01T12:20:45;6.23;;;2.73;;
10699;SDS011;5401;41.986;21.452;2022-08-01T12:23:14;7.33;;;2.40;;
10699;SDS011;5401;41.986;21.452;2022-08-01T12:25:42;6.03;;;2.43;;
10699;SDS011;5401;41.986;21.452;2022-08-01T12:28:11;3.53;;;2.10;;
10699;SDS011;5401;41.986;21.452;2022-08-01T12:30:39;2.97;;;2.10;;
10699;SDS011;5401;41.986;21.452;2022-08-01T12:33:07;2.70;;;2.00;;
10699;SDS011;5401;41.986;21.452;2022-08-01T12:35:38;2.93;;;2.40;;
10699;SDS011;5401;41.986;21.452;2022-08-01T12:38:13;5.17;;;2.10;;
10699;SDS011;5401;41.986;21.452;2022-08-01T12:40:42;4.67;;;2.00;;
10699;SDS011;5401;41.986;21.452;2022-08-01T12:43:17;5.50;;;2.37;;
10699;SDS011;5401;41.986;21.452;2022-08-01T12:45:47;10.20;;;2.00;;
10699;SDS011;5401;41.986;21.452;2022-08-01T12:48:17;4.33;;;2.30;;
10699;SDS011;5401;41.986;21.452;2022-08-01T12:50:45;5.63;;;2.33;;
10699;SDS011;5401;41.986;21.452;2022-08-01T12:53:15;3.47;;;2.30;;
10699;SDS011;5401;41.986;21.452;2022-08-01T12:55:44;5.17;;;2.10;;
10699;SDS011;5401;41.986;21.452;2022-08-01T12:58:13;4.90;;;2.00;;
10699;SDS011;5401;41.986;21.452;2022-08-01T13:00:44;10.70;;;2.43;;
10699;SDS011;5401;41.986;21.452;2022-08-01T13:03:14;3.50;;;2.00;;
10699;SDS011;5401;41.986;21.452;2022-08-01T13:05:43;4.93;;;2.17;;
10699;SDS011;5401;41.986;21.452;2022-08-01T13:08:11;3.07;;;2.00;;
10699;SDS011;5401;41.986;21.452;2022-08-01T13:10:40;3.77;;;2.10;;
10699;SDS011;5401;41.986;21.452;2022-08-01T13:13:08;10.13;;;2.67;;
10699;SDS011;5401;41.986;21.452;2022-08-01T13:15:36;9.13;;;2.23;;
10699;SDS011;5401;41.986;21.452;2022-08-01T13:18:25;5.20;;;2.13;;
10699;SDS011;5401;41.986;21.452;2022-08-01T13:21:06;4.63;;;2.20;;
10699;SDS011;5401;41.986;21.452;2022-08-01T13:23:36;8.27;;;2.53;;
10699;SDS011;5401;41.986;21.452;2022-08-01T13:26:04;4.83;;;2.10;;
10699;SDS011;5401;41.986;21.452;2022-08-01T13:28:32;5.13;;;2.00;;
10699;SDS011;5401;41.986;21.452;2022-08-01T13:31:03;2.47;;;2.17;;
10699;SDS011;5401;41.986;21.452;2022-08-01T13:33:41;5.73;;;3.40;;
10699;SDS011;5401;41.986;21.452;2022-08-01T13:36:10;3.63;;;2.30;;
10699;SDS011;5401;41.986;21.452;2022-08-01T13:38:38;8.07;;;2.53;;
10699;SDS011;5401;41.986;21.452;2022-08-01T13:41:23;12.70;;;2.60;;
10699;SDS011;5401;41.986;21.452;2022-08-01T13:43:51;11.97;;;2.40;;
10699;SDS011;5401;41.986;21.452;2022-08-01T13:46:19;7.23;;;2.60;;
10699;SDS011;5401;41.986;21.452;2022-08-01T13:48:48;4.07;;;2.17;;
10699;SDS011;5401;41.986;21.452;2022-08-01T13:51:15;4.20;;;2.70;;
10699;SDS011;5401;41.986;21.452;2022-08-01T13:53:43;3.57;;;2.17;;
10699;SDS011;5401;41.986;21.452;2022-08-01T13:56:10;2.70;;;1.93;;
10699;SDS011;5401;41.986;21.452;2022-08-01T13:58:38;10.87;;;2.60;;
10699;SDS011;5401;41.986;21.452;2022-08-01T14:01:05;3.30;;;2.30;;
10699;SDS011;5401;41.986;21.452;2022-08-01T14:03:33;6.40;;;2.43;;
10699;SDS011;5401;41.986;21.452;2022-08-01T14:06:02;4.20;;;2.10;;
10699;SDS011;5401;41.986;21.452;2022-08-01T14:08:30;17.97;;;2.93;;
10699;SDS011;5401;41.986;21.452;2022-08-01T14:10:57;9.57;;;2.60;;
10699;SDS011;5401;41.986;21.452;2022-08-01T14:13:25;8.73;;;2.70;;
10699;SDS011;5401;41.986;21.452;2022-08-01T14:15:53;6.73;;;2.50;;
10699;SDS011;5401;41.986;21.452;2022-08-01T14:18:21;9.00;;;2.10;;
10699;SDS011;5401;41.986;21.452;2022-08-01T14:20:48;5.43;;;2.07;;
10699;SDS011;5401;41.986;21.452;2022-08-01T14:23:17;4.97;;;2.07;;
10699;SDS011;5401;41.986;21.452;2022-08-01T14:25:45;7.57;;;2.90;;
10699;SDS011;5401;41.986;21.452;2022-08-01T14:28:12;5.07;;;2.40;;
10699;SDS011;5401;41.986;21.452;2022-08-01T14:30:40;2.73;;;2.50;;
10699;SDS011;5401;41.986;21.452;2022-08-01T14:33:08;8.20;;;2.30;;
10699;SDS011;5401;41.986;21.452;2022-08-01T14:35:36;6.30;;;2.37;;
10699;SDS011;5401;41.986;21.452;2022-08-01T14:38:03;8.93;;;2.13;;
10699;SDS011;5401;41.986;21.452;2022-08-01T14:40:32;3.07;;;1.70;;
10699;SDS011;5401;41.986;21.452;2022-08-01T14:43:00;4.07;;;1.63;;
10699;SDS011;5401;41.986;21.452;2022-08-01T14:45:27;1.83;;;1.50;;
10699;SDS011;5401;41.986;21.452;2022-08-01T14:47:55;4.73;;;1.70;;
10699;SDS011;5401;41.986;21.452;2022-08-01T14:50:23;9.00;;;1.80;;
10699;SDS011;5401;41.986;21.452;2022-08-01T14:52:52;2.43;;;1.60;;
10699;SDS011;5401;41.986;21.452;2022-08-01T14:55:20;6.07;;;1.53;;
10699;SDS011;5401;41.986;21.452;2022-08-01T14:57:52;1.57;;;1.30;;
10699;SDS011;5401;41.986;21.452;2022-08-01T15:00:19;3.83;;;1.50;;
10699;SDS011;5401;41.986;21.452;2022-08-01T15:02:47;2.17;;;1.63;;
10699;SDS011;5401;41.986;21.452;2022-08-01T15:05:15;8.23;;;2.30;;
10699;SDS011;5401;41.986;21.452;2022-08-01T15:07:42;2.13;;;1.73;;
10699;SDS011;5401;41.986;21.452;2022-08-01T15:10:10;4.67;;;1.90;;
10699;SDS011;5401;41.986;21.452;2022-08-01T15:12:37;4.53;;;2.10;;
10699;SDS011;5401;41.986;21.452;2022-08-01T15:15:07;2.93;;;1.67;;
10699;SDS011;5401;41.986;21.452;2022-08-01T15:17:35;2.80;;;1.80;;
10699;SDS011;5401;41.986;21.452;2022-08-01T15:20:03;3.47;;;2.20;;